Aviation Digital Data Service (ADDS)

Output produced by METARs form (0203 UTC 16 January 2019)
found at http://www.aviationweather.gov/metar/data/
 
BKPR 160200Z 35005KT 9999 FEW090 SCT000 M07/M11 Q1018 NOSIG RMK 17490095
TAF BKPR 152330Z 1600/1624 22006KT 8000 SCT060 
     TEMPO 1603/1608 2000 BR 
     PROB30 1605/1607 0600 FZFG